METAR Data
IDs: Format: Raw Decoded Include TAF

Data at: 0021 UTC 25 Apr 2019

METAR for:KHPT (Hampton Muni, IA, US)
Text:KHPT 250015Z AUTO 00000KT 10SM CLR 18/02 A2977 RMK AO2
Temperature: 18.0°C ( 64°F)
Dewpoint: 2.0°C ( 36°F) [RH = 34%]
Pressure (altimeter):29.77 inches Hg (1008.2 mb)
Winds:calm
Visibility:10 or more sm (16+ km)
Ceiling:at least 12,000 feet AGL
Clouds:sky clear below 12,000 feet AGL
QC Flag:automated observation with no human augmentation